sensor_id;sensor_type;location;lat;lon;timestamp;pressure;altitude;pressure_sealevel;temperature;humidity
6435;BME280;3250;42.694;23.278;2023-02-14T00:01:36;96261.81;;;3.63;67.14
6435;BME280;3250;42.694;23.278;2023-02-14T00:04:03;96259.47;;;3.51;67.72
6435;BME280;3250;42.694;23.278;2023-02-14T00:06:30;96244.56;;;3.53;67.35
6435;BME280;3250;42.694;23.278;2023-02-14T00:09:03;96252.94;;;3.66;67.31
6435;BME280;3250;42.694;23.278;2023-02-14T00:11:28;96255.41;;;3.67;66.63
6435;BME280;3250;42.694;23.278;2023-02-14T00:13:54;96260.47;;;3.59;66.89
6435;BME280;3250;42.694;23.278;2023-02-14T00:16:39;96255.91;;;3.52;67.36
6435;BME280;3250;42.694;23.278;2023-02-14T00:19:04;96257.94;;;3.48;67.68
6435;BME280;3250;42.694;23.278;2023-02-14T00:21:35;96265.88;;;3.37;68.36
6435;BME280;3250;42.694;23.278;2023-02-14T00:24:03;96271.50;;;3.42;68.73
6435;BME280;3250;42.694;23.278;2023-02-14T00:26:29;96273.84;;;3.55;68.31
6435;BME280;3250;42.694;23.278;2023-02-14T00:28:55;96261.50;;;3.47;68.24
6435;BME280;3250;42.694;23.278;2023-02-14T00:31:20;96253.47;;;3.60;68.72
6435;BME280;3250;42.694;23.278;2023-02-14T00:33:46;96212.56;;;3.31;68.94
6435;BME280;3250;42.694;23.278;2023-02-14T00:36:11;96248.66;;;3.46;69.63
6435;BME280;3250;42.694;23.278;2023-02-14T00:38:37;96252.22;;;3.45;69.61
6435;BME280;3250;42.694;23.278;2023-02-14T00:41:02;96252.75;;;3.48;69.86
6435;BME280;3250;42.694;23.278;2023-02-14T00:43:29;96245.22;;;3.55;69.62
6435;BME280;3250;42.694;23.278;2023-02-14T00:45:54;96248.69;;;3.65;69.54
6435;BME280;3250;42.694;23.278;2023-02-14T00:48:20;96261.03;;;3.63;69.67
6435;BME280;3250;42.694;23.278;2023-02-14T00:50:45;96253.50;;;3.69;69.50
6435;BME280;3250;42.694;23.278;2023-02-14T00:53:11;96241.81;;;3.64;69.55
6435;BME280;3250;42.694;23.278;2023-02-14T00:55:37;96223.88;;;3.61;69.41
6435;BME280;3250;42.694;23.278;2023-02-14T00:58:02;96239.53;;;3.70;69.21
6435;BME280;3250;42.694;23.278;2023-02-14T01:00:28;96237.47;;;3.74;69.62
6435;BME280;3250;42.694;23.278;2023-02-14T01:02:53;96238.03;;;3.87;68.94
6435;BME280;3250;42.694;23.278;2023-02-14T01:05:19;96242.59;;;4.04;68.56
6435;BME280;3250;42.694;23.278;2023-02-14T01:07:44;96229.56;;;4.04;68.03
6435;BME280;3250;42.694;23.278;2023-02-14T01:10:10;96231.47;;;4.12;67.80
6435;BME280;3250;42.694;23.278;2023-02-14T01:12:35;96231.22;;;4.05;67.81
6435;BME280;3250;42.694;23.278;2023-02-14T01:15:01;96226.66;;;4.07;67.49
6435;BME280;3250;42.694;23.278;2023-02-14T01:17:26;96231.22;;;4.05;67.58
6435;BME280;3250;42.694;23.278;2023-02-14T01:19:52;96231.22;;;4.05;67.47
6435;BME280;3250;42.694;23.278;2023-02-14T01:22:17;96204.72;;;3.62;68.58
6435;BME280;3250;42.694;23.278;2023-02-14T01:24:43;96224.69;;;3.52;69.22
6435;BME280;3250;42.694;23.278;2023-02-14T01:27:08;96214.41;;;3.60;69.32
6435;BME280;3250;42.694;23.278;2023-02-14T01:29:34;96226.47;;;3.51;69.76
6435;BME280;3250;42.694;23.278;2023-02-14T01:31:59;96221.13;;;3.72;69.32
6435;BME280;3250;42.694;23.278;2023-02-14T01:34:25;96199.09;;;3.76;68.48
6435;BME280;3250;42.694;23.278;2023-02-14T01:36:50;96172.66;;;3.61;68.09
6435;BME280;3250;42.694;23.278;2023-02-14T01:39:15;96206.34;;;3.82;68.63
6435;BME280;3250;42.694;23.278;2023-02-14T01:41:44;96198.97;;;3.87;68.49
6435;BME280;3250;42.694;23.278;2023-02-14T01:46:37;96184.00;;;3.99;68.03
6435;BME280;3250;42.694;23.278;2023-02-14T01:51:47;96179.47;;;3.72;68.31
6435;BME280;3250;42.694;23.278;2023-02-14T01:54:13;96186.34;;;3.54;69.09
6435;BME280;3250;42.694;23.278;2023-02-14T01:56:44;96170.44;;;3.66;68.94
6435;BME280;3250;42.694;23.278;2023-02-14T01:59:15;96183.91;;;3.71;68.85
6435;BME280;3250;42.694;23.278;2023-02-14T02:01:44;96184.56;;;3.83;68.68
6435;BME280;3250;42.694;23.278;2023-02-14T02:04:16;96181.00;;;3.74;68.03
6435;BME280;3250;42.694;23.278;2023-02-14T02:06:51;96167.97;;;3.46;69.45
6435;BME280;3250;42.694;23.278;2023-02-14T02:09:23;96186.69;;;3.39;70.02
6435;BME280;3250;42.694;23.278;2023-02-14T02:11:50;96182.47;;;3.48;70.07
6435;BME280;3250;42.694;23.278;2023-02-14T02:14:19;96141.63;;;3.29;69.50
6435;BME280;3250;42.694;23.278;2023-02-14T02:17:19;96164.13;;;3.59;68.83
6435;BME280;3250;42.694;23.278;2023-02-14T02:35:44;96160.28;;;3.63;68.70
6435;BME280;3250;42.694;23.278;2023-02-14T02:49:33;96152.09;;;3.68;68.60
6435;BME280;3250;42.694;23.278;2023-02-14T02:55:24;96145.63;;;3.72;67.59
6435;BME280;3250;42.694;23.278;2023-02-14T02:57:53;96146.19;;;3.66;68.12
6435;BME280;3250;42.694;23.278;2023-02-14T03:00:20;96147.41;;;3.52;68.26
6435;BME280;3250;42.694;23.278;2023-02-14T03:02:49;96155.47;;;3.39;69.29
6435;BME280;3250;42.694;23.278;2023-02-14T03:05:34;96145.19;;;3.38;69.07
6435;BME280;3250;42.694;23.278;2023-02-14T03:08:02;96154.38;;;3.42;69.30
6435;BME280;3250;42.694;23.278;2023-02-14T03:10:31;96148.22;;;3.43;68.95
6435;BME280;3250;42.694;23.278;2023-02-14T03:16:23;96151.50;;;3.55;68.60
6435;BME280;3250;42.694;23.278;2023-02-14T03:22:19;96141.38;;;3.52;69.12
6435;BME280;3250;42.694;23.278;2023-02-14T03:24:49;96146.16;;;3.47;69.08
6435;BME280;3250;42.694;23.278;2023-02-14T03:27:29;96132.75;;;3.41;69.59
6435;BME280;3250;42.694;23.278;2023-02-14T03:30:19;96122.34;;;3.41;69.03
6435;BME280;3250;42.694;23.278;2023-02-14T03:35:54;96122.44;;;3.21;69.92
6435;BME280;3250;42.694;23.278;2023-02-14T03:41:00;96125.75;;;3.42;69.32
6435;BME280;3250;42.694;23.278;2023-02-14T03:43:32;96139.75;;;3.51;68.46
6435;BME280;3250;42.694;23.278;2023-02-14T03:46:09;96116.88;;;3.45;68.57
6435;BME280;3250;42.694;23.278;2023-02-14T03:48:38;96128.34;;;3.42;68.62
6435;BME280;3250;42.694;23.278;2023-02-14T03:51:06;96125.88;;;3.40;69.09
6435;BME280;3250;42.694;23.278;2023-02-14T03:53:35;96104.38;;;3.19;68.67
6435;BME280;3250;42.694;23.278;2023-02-14T03:56:25;96109.44;;;3.11;69.60
6435;BME280;3250;42.694;23.278;2023-02-14T03:58:56;96103.78;;;3.06;69.45
6435;BME280;3250;42.694;23.278;2023-02-14T04:01:36;96100.34;;;3.06;70.36
6435;BME280;3250;42.694;23.278;2023-02-14T04:04:04;96098.31;;;2.99;70.18
6435;BME280;3250;42.694;23.278;2023-02-14T04:06:31;96094.47;;;3.13;70.02
6435;BME280;3250;42.694;23.278;2023-02-14T04:08:57;96093.41;;;3.25;69.61
6435;BME280;3250;42.694;23.278;2023-02-14T04:11:23;96093.00;;;3.11;69.60
6435;BME280;3250;42.694;23.278;2023-02-14T04:13:48;96098.34;;;3.19;69.45
6435;BME280;3250;42.694;23.278;2023-02-14T04:16:13;96094.91;;;3.18;69.49
6435;BME280;3250;42.694;23.278;2023-02-14T04:18:39;96086.56;;;3.15;69.85
6435;BME280;3250;42.694;23.278;2023-02-14T04:21:23;96102.44;;;3.21;69.51
6435;BME280;3250;42.694;23.278;2023-02-14T04:23:48;96101.78;;;3.38;68.79
6435;BME280;3250;42.694;23.278;2023-02-14T04:26:14;96087.53;;;3.42;68.73
6435;BME280;3250;42.694;23.278;2023-02-14T04:28:39;96090.69;;;3.36;68.72
6435;BME280;3250;42.694;23.278;2023-02-14T04:31:05;96101.22;;;3.16;68.83
6435;BME280;3250;42.694;23.278;2023-02-14T04:33:31;96100.28;;;3.26;69.04
6435;BME280;3250;42.694;23.278;2023-02-14T04:35:57;96098.50;;;3.36;68.96
6435;BME280;3250;42.694;23.278;2023-02-14T04:38:22;96081.66;;;3.40;68.08
6435;BME280;3250;42.694;23.278;2023-02-14T04:40:48;96074.66;;;3.31;67.94
6435;BME280;3250;42.694;23.278;2023-02-14T04:43:14;96064.38;;;3.11;68.07
6435;BME280;3250;42.694;23.278;2023-02-14T04:45:40;96079.84;;;3.12;68.61
6435;BME280;3250;42.694;23.278;2023-02-14T04:48:05;96077.38;;;3.11;69.11
6435;BME280;3250;42.694;23.278;2023-02-14T04:50:31;96059.84;;;3.13;69.08
6435;BME280;3250;42.694;23.278;2023-02-14T04:52:57;96067.25;;;3.08;68.74
6435;BME280;3250;42.694;23.278;2023-02-14T04:55:22;96070.25;;;3.13;68.98
6435;BME280;3250;42.694;23.278;2023-02-14T04:57:48;96071.22;;;3.31;68.24
6435;BME280;3250;42.694;23.278;2023-02-14T05:00:13;95945.53;;;2.63;68.11
6435;BME280;3250;42.694;23.278;2023-02-14T05:02:39;96075.88;;;3.47;67.81
6435;BME280;3250;42.694;23.278;2023-02-14T05:05:05;96075.91;;;3.37;67.65
6435;BME280;3250;42.694;23.278;2023-02-14T05:07:30;96074.13;;;3.28;68.15
6435;BME280;3250;42.694;23.278;2023-02-14T05:09:56;96082.47;;;3.31;67.98
6435;BME280;3250;42.694;23.278;2023-02-14T05:12:21;96065.31;;;3.29;67.92
6435;BME280;3250;42.694;23.278;2023-02-14T05:14:46;96075.34;;;3.24;68.23
6435;BME280;3250;42.694;23.278;2023-02-14T05:17:12;96070.97;;;3.24;68.32
6435;BME280;3250;42.694;23.278;2023-02-14T05:19:37;96075.44;;;3.13;68.71
6435;BME280;3250;42.694;23.278;2023-02-14T05:22:03;96071.34;;;3.00;69.47
6435;BME280;3250;42.694;23.278;2023-02-14T05:24:28;96051.22;;;2.93;69.49
6435;BME280;3250;42.694;23.278;2023-02-14T05:26:54;96071.78;;;3.15;69.11
6435;BME280;3250;42.694;23.278;2023-02-14T05:29:19;96068.75;;;3.10;69.17
6435;BME280;3250;42.694;23.278;2023-02-14T05:31:45;96078.63;;;3.16;68.75
6435;BME280;3250;42.694;23.278;2023-02-14T05:34:10;96070.53;;;3.29;68.89
6435;BME280;3250;42.694;23.278;2023-02-14T05:36:36;96058.34;;;3.39;68.11
6435;BME280;3250;42.694;23.278;2023-02-14T05:39:02;96067.00;;;3.39;68.19
6435;BME280;3250;42.694;23.278;2023-02-14T05:41:27;96074.28;;;3.46;67.89
6435;BME280;3250;42.694;23.278;2023-02-14T05:43:53;96035.50;;;3.23;67.73
6435;BME280;3250;42.694;23.278;2023-02-14T05:46:18;96065.63;;;3.35;68.21
6435;BME280;3250;42.694;23.278;2023-02-14T05:48:43;96064.66;;;3.46;68.04
6435;BME280;3250;42.694;23.278;2023-02-14T05:51:10;96026.59;;;3.45;67.14
6435;BME280;3250;42.694;23.278;2023-02-14T05:53:36;96058.88;;;3.81;66.82
6435;BME280;3250;42.694;23.278;2023-02-14T05:56:01;96050.69;;;3.66;66.74
6435;BME280;3250;42.694;23.278;2023-02-14T05:58:27;96033.28;;;3.48;66.85
6435;BME280;3250;42.694;23.278;2023-02-14T06:00:52;96055.88;;;3.86;67.08
6435;BME280;3250;42.694;23.278;2023-02-14T06:03:18;96061.34;;;3.92;66.39
6435;BME280;3250;42.694;23.278;2023-02-14T06:05:43;96050.09;;;3.82;66.36
6435;BME280;3250;42.694;23.278;2023-02-14T06:08:09;96066.28;;;3.95;66.58
6435;BME280;3250;42.694;23.278;2023-02-14T06:10:34;96048.44;;;3.91;66.62
6435;BME280;3250;42.694;23.278;2023-02-14T06:13:00;96074.34;;;4.02;66.58
6435;BME280;3250;42.694;23.278;2023-02-14T06:15:25;96073.94;;;4.06;66.64
6435;BME280;3250;42.694;23.278;2023-02-14T06:17:53;96066.53;;;3.92;66.50
6435;BME280;3250;42.694;23.278;2023-02-14T06:20:19;96072.81;;;3.99;66.70
6435;BME280;3250;42.694;23.278;2023-02-14T06:22:45;96078.75;;;3.82;66.58
6435;BME280;3250;42.694;23.278;2023-02-14T06:25:10;96075.75;;;3.87;66.68
6435;BME280;3250;42.694;23.278;2023-02-14T06:27:35;96079.00;;;3.98;67.11
6435;BME280;3250;42.694;23.278;2023-02-14T06:30:01;96078.47;;;3.85;66.71
6435;BME280;3250;42.694;23.278;2023-02-14T06:32:26;96068.06;;;3.95;66.87
6435;BME280;3250;42.694;23.278;2023-02-14T06:34:52;96068.75;;;3.97;66.57
6435;BME280;3250;42.694;23.278;2023-02-14T06:37:17;96069.56;;;3.97;66.84
6435;BME280;3250;42.694;23.278;2023-02-14T06:39:44;96067.72;;;4.07;66.56
6435;BME280;3250;42.694;23.278;2023-02-14T06:42:09;96080.22;;;4.13;66.28
6435;BME280;3250;42.694;23.278;2023-02-14T06:44:35;96068.16;;;4.12;66.89
6435;BME280;3250;42.694;23.278;2023-02-14T06:47:00;96045.69;;;4.02;66.75
6435;BME280;3250;42.694;23.278;2023-02-14T06:49:26;96048.00;;;4.14;66.55
6435;BME280;3250;42.694;23.278;2023-02-14T06:51:51;96068.88;;;4.42;66.91
6435;BME280;3250;42.694;23.278;2023-02-14T06:54:16;96058.47;;;4.69;66.45
6435;BME280;3250;42.694;23.278;2023-02-14T06:56:42;96065.03;;;4.73;65.22
6435;BME280;3250;42.694;23.278;2023-02-14T06:59:07;96053.34;;;4.77;65.10
6435;BME280;3250;42.694;23.278;2023-02-14T07:01:33;96053.19;;;4.79;65.15
6435;BME280;3250;42.694;23.278;2023-02-14T07:03:58;96052.88;;;4.91;64.91
6435;BME280;3250;42.694;23.278;2023-02-14T07:06:24;96058.00;;;4.83;65.48
6435;BME280;3250;42.694;23.278;2023-02-14T07:08:49;96055.75;;;4.88;65.34
6435;BME280;3250;42.694;23.278;2023-02-14T07:11:16;96043.53;;;4.89;65.68
6435;BME280;3250;42.694;23.278;2023-02-14T07:13:41;96047.47;;;4.93;65.87
6435;BME280;3250;42.694;23.278;2023-02-14T07:16:08;96045.78;;;5.02;65.55
6435;BME280;3250;42.694;23.278;2023-02-14T07:18:34;96050.59;;;4.79;66.29
6435;BME280;3250;42.694;23.278;2023-02-14T07:20:59;96036.63;;;4.43;67.62
6435;BME280;3250;42.694;23.278;2023-02-14T07:23:25;96062.63;;;4.62;68.21
6435;BME280;3250;42.694;23.278;2023-02-14T07:25:50;96057.25;;;4.64;68.52
6435;BME280;3250;42.694;23.278;2023-02-14T07:28:16;96054.78;;;4.62;68.79
6435;BME280;3250;42.694;23.278;2023-02-14T07:30:41;96070.25;;;4.73;68.87
6435;BME280;3250;42.694;23.278;2023-02-14T07:33:06;96072.50;;;4.86;68.82
6435;BME280;3250;42.694;23.278;2023-02-14T07:35:32;96060.06;;;4.80;69.12
6435;BME280;3250;42.694;23.278;2023-02-14T07:37:59;96040.44;;;4.76;69.25
6435;BME280;3250;42.694;23.278;2023-02-14T07:40:24;96047.47;;;4.75;69.84
6435;BME280;3250;42.694;23.278;2023-02-14T07:42:54;96064.63;;;4.68;70.65
6435;BME280;3250;42.694;23.278;2023-02-14T07:45:20;96062.84;;;4.69;71.12
6435;BME280;3250;42.694;23.278;2023-02-14T07:47:50;96049.75;;;4.51;71.25
6435;BME280;3250;42.694;23.278;2023-02-14T07:50:16;96073.97;;;4.71;71.46
6435;BME280;3250;42.694;23.278;2023-02-14T07:52:42;96073.97;;;4.71;71.50
6435;BME280;3250;42.694;23.278;2023-02-14T07:55:08;96075.63;;;4.72;71.57
6435;BME280;3250;42.694;23.278;2023-02-14T07:57:33;96061.66;;;4.63;71.54
6435;BME280;3250;42.694;23.278;2023-02-14T07:59:59;96061.56;;;4.55;72.62
6435;BME280;3250;42.694;23.278;2023-02-14T08:02:24;96086.84;;;4.82;74.37
6435;BME280;3250;42.694;23.278;2023-02-14T08:04:49;96064.72;;;4.76;72.64
6435;BME280;3250;42.694;23.278;2023-02-14T08:07:15;96089.28;;;4.83;72.27
6435;BME280;3250;42.694;23.278;2023-02-14T08:09:40;96093.34;;;4.59;72.43
6435;BME280;3250;42.694;23.278;2023-02-14T08:12:06;96088.09;;;4.68;74.48
6435;BME280;3250;42.694;23.278;2023-02-14T08:14:50;96095.09;;;4.68;72.66
6435;BME280;3250;42.694;23.278;2023-02-14T08:17:15;96096.78;;;4.59;73.30
6435;BME280;3250;42.694;23.278;2023-02-14T08:19:40;96081.22;;;4.77;74.94
6435;BME280;3250;42.694;23.278;2023-02-14T08:22:06;96068.22;;;4.67;73.27
6435;BME280;3250;42.694;23.278;2023-02-14T08:24:32;96094.88;;;4.88;73.43
6435;BME280;3250;42.694;23.278;2023-02-14T08:26:57;96096.41;;;4.91;71.83
6435;BME280;3250;42.694;23.278;2023-02-14T08:29:23;96105.47;;;4.87;75.00
6435;BME280;3250;42.694;23.278;2023-02-14T08:31:48;96094.59;;;4.91;75.21
6435;BME280;3250;42.694;23.278;2023-02-14T08:34:15;96099.41;;;4.86;73.32
6435;BME280;3250;42.694;23.278;2023-02-14T08:36:41;96095.53;;;5.00;75.20
6435;BME280;3250;42.694;23.278;2023-02-14T08:39:07;96092.63;;;5.21;73.25
6435;BME280;3250;42.694;23.278;2023-02-14T08:41:33;96087.81;;;5.26;72.63
6435;BME280;3250;42.694;23.278;2023-02-14T08:43:58;96094.38;;;5.30;70.85
6435;BME280;3250;42.694;23.278;2023-02-14T08:46:24;96106.31;;;5.32;70.50
6435;BME280;3250;42.694;23.278;2023-02-14T08:48:49;96080.03;;;5.16;70.87
6435;BME280;3250;42.694;23.278;2023-02-14T08:51:17;96107.34;;;5.22;70.73
6435;BME280;3250;42.694;23.278;2023-02-14T08:53:43;96103.19;;;5.02;71.27
6435;BME280;3250;42.694;23.278;2023-02-14T08:56:11;96102.03;;;4.86;72.28
6435;BME280;3250;42.694;23.278;2023-02-14T08:58:37;96098.34;;;4.52;73.29
6435;BME280;3250;42.694;23.278;2023-02-14T09:01:09;96110.00;;;4.58;73.54
6435;BME280;3250;42.694;23.278;2023-02-14T09:03:36;96106.28;;;4.50;73.77
6435;BME280;3250;42.694;23.278;2023-02-14T09:06:07;96106.16;;;4.52;74.30
6435;BME280;3250;42.694;23.278;2023-02-14T09:08:33;96091.56;;;4.59;74.21
6435;BME280;3250;42.694;23.278;2023-02-14T09:11:08;96091.41;;;4.70;73.75
6435;BME280;3250;42.694;23.278;2023-02-14T09:13:34;96095.53;;;4.73;73.42
6435;BME280;3250;42.694;23.278;2023-02-14T09:16:04;96088.06;;;4.78;73.27
6435;BME280;3250;42.694;23.278;2023-02-14T09:18:29;96043.31;;;4.55;72.99
6435;BME280;3250;42.694;23.278;2023-02-14T09:20:55;96081.75;;;4.80;72.73
6435;BME280;3250;42.694;23.278;2023-02-14T09:23:20;96073.28;;;4.69;73.31
6435;BME280;3250;42.694;23.278;2023-02-14T09:25:46;96058.66;;;4.58;73.37
6435;BME280;3250;42.694;23.278;2023-02-14T09:28:11;96077.06;;;4.84;72.79
6435;BME280;3250;42.694;23.278;2023-02-14T09:30:36;96086.00;;;4.81;73.89
6435;BME280;3250;42.694;23.278;2023-02-14T09:33:02;96084.69;;;4.95;72.34
6435;BME280;3250;42.694;23.278;2023-02-14T09:35:30;96082.28;;;4.84;71.93
6435;BME280;3250;42.694;23.278;2023-02-14T09:37:55;96082.66;;;4.89;72.39
6435;BME280;3250;42.694;23.278;2023-02-14T09:40:39;96086.47;;;4.94;72.09
6435;BME280;3250;42.694;23.278;2023-02-14T09:45:36;96080.97;;;4.98;71.51
6435;BME280;3250;42.694;23.278;2023-02-14T09:48:14;96069.84;;;4.96;71.31
6435;BME280;3250;42.694;23.278;2023-02-14T09:50:48;96076.16;;;4.75;71.66
6435;BME280;3250;42.694;23.278;2023-02-14T09:53:30;96067.94;;;4.70;72.04
6435;BME280;3250;42.694;23.278;2023-02-14T09:56:19;96070.03;;;4.67;72.14
6435;BME280;3250;42.694;23.278;2023-02-14T09:59:08;96057.34;;;4.44;72.90
6435;BME280;3250;42.694;23.278;2023-02-14T10:04:31;96071.13;;;4.64;72.08
6435;BME280;3250;42.694;23.278;2023-02-14T10:12:33;96057.78;;;4.40;72.61
6435;BME280;3250;42.694;23.278;2023-02-14T10:15:06;96059.69;;;4.38;73.10
6435;BME280;3250;42.694;23.278;2023-02-14T10:17:44;96057.50;;;4.33;73.43
6435;BME280;3250;42.694;23.278;2023-02-14T10:20:19;96056.31;;;4.28;73.57
6435;BME280;3250;42.694;23.278;2023-02-14T10:26:05;96049.34;;;4.18;73.28
6435;BME280;3250;42.694;23.278;2023-02-14T10:28:47;96043.72;;;4.23;73.19
6435;BME280;3250;42.694;23.278;2023-02-14T10:34:03;96046.44;;;4.31;72.59
6435;BME280;3250;42.694;23.278;2023-02-14T10:45:04;96043.97;;;4.30;72.41
6435;BME280;3250;42.694;23.278;2023-02-14T10:58:15;96044.16;;;4.46;72.08
6435;BME280;3250;42.694;23.278;2023-02-14T11:01:11;96029.34;;;4.46;72.46
6435;BME280;3250;42.694;23.278;2023-02-14T11:03:39;96042.56;;;4.35;72.23
6435;BME280;3250;42.694;23.278;2023-02-14T11:06:07;96037.06;;;4.38;72.24
6435;BME280;3250;42.694;23.278;2023-02-14T11:08:38;96023.69;;;4.51;72.25
6435;BME280;3250;42.694;23.278;2023-02-14T11:13:56;96005.59;;;4.49;71.00
6435;BME280;3250;42.694;23.278;2023-02-14T11:19:19;96030.94;;;4.57;69.87
6435;BME280;3250;42.694;23.278;2023-02-14T11:21:46;96014.75;;;4.53;70.45
6435;BME280;3250;42.694;23.278;2023-02-14T11:24:44;96018.97;;;4.64;69.89
6435;BME280;3250;42.694;23.278;2023-02-14T11:32:09;96010.38;;;4.54;69.49
6435;BME280;3250;42.694;23.278;2023-02-14T11:34:44;96006.53;;;4.58;70.04
6435;BME280;3250;42.694;23.278;2023-02-14T11:39:51;95997.53;;;4.88;68.06
6435;BME280;3250;42.694;23.278;2023-02-14T11:42:41;96000.97;;;4.88;67.43
6435;BME280;3250;42.694;23.278;2023-02-14T11:45:27;96004.69;;;4.86;67.70
6435;BME280;3250;42.694;23.278;2023-02-14T11:50:35;95995.63;;;4.90;66.28
6435;BME280;3250;42.694;23.278;2023-02-14T11:53:01;96000.78;;;5.00;66.44
6435;BME280;3250;42.694;23.278;2023-02-14T11:55:30;95990.69;;;4.87;66.51
6435;BME280;3250;42.694;23.278;2023-02-14T11:57:58;95983.25;;;4.92;66.02
6435;BME280;3250;42.694;23.278;2023-02-14T12:00:25;95985.84;;;4.74;66.51
6435;BME280;3250;42.694;23.278;2023-02-14T12:02:52;95994.56;;;4.83;67.13
6435;BME280;3250;42.694;23.278;2023-02-14T12:05:33;95984.59;;;4.96;66.88
6435;BME280;3250;42.694;23.278;2023-02-14T12:08:03;95984.78;;;5.03;66.33
6435;BME280;3250;42.694;23.278;2023-02-14T12:10:34;95972.88;;;4.82;66.84
6435;BME280;3250;42.694;23.278;2023-02-14T12:20:46;95961.63;;;5.17;67.14
6435;BME280;3250;42.694;23.278;2023-02-14T12:23:58;95970.03;;;5.29;65.84
6435;BME280;3250;42.694;23.278;2023-02-14T12:26:34;95972.63;;;5.29;65.72
6435;BME280;3250;42.694;23.278;2023-02-14T12:29:17;95967.53;;;5.45;65.12
6435;BME280;3250;42.694;23.278;2023-02-14T12:31:45;95958.59;;;5.48;65.32
6435;BME280;3250;42.694;23.278;2023-02-14T12:34:12;95938.53;;;5.48;65.12
6435;BME280;3250;42.694;23.278;2023-02-14T12:37:01;95961.16;;;5.65;64.60
6435;BME280;3250;42.694;23.278;2023-02-14T12:48:29;95959.72;;;5.71;64.13
6435;BME280;3250;42.694;23.278;2023-02-14T12:56:31;95953.28;;;5.83;63.97
6435;BME280;3250;42.694;23.278;2023-02-14T12:59:04;95955.03;;;5.75;63.99
6435;BME280;3250;42.694;23.278;2023-02-14T13:05:04;95946.75;;;5.79;64.29
6435;BME280;3250;42.694;23.278;2023-02-14T13:10:44;95950.69;;;5.83;64.34
6435;BME280;3250;42.694;23.278;2023-02-14T13:18:58;95943.00;;;5.82;65.19
6435;BME280;3250;42.694;23.278;2023-02-14T13:21:30;95938.59;;;5.82;65.29
6435;BME280;3250;42.694;23.278;2023-02-14T13:24:10;95939.47;;;5.91;65.07
6435;BME280;3250;42.694;23.278;2023-02-14T13:26:41;95930.16;;;5.88;65.02
6435;BME280;3250;42.694;23.278;2023-02-14T13:29:13;95932.97;;;5.95;64.84
6435;BME280;3250;42.694;23.278;2023-02-14T13:31:41;95930.38;;;5.95;64.64
6435;BME280;3250;42.694;23.278;2023-02-14T13:34:38;95910.50;;;5.84;64.53
6435;BME280;3250;42.694;23.278;2023-02-14T13:37:10;95924.47;;;5.93;64.87
6435;BME280;3250;42.694;23.278;2023-02-14T13:39:58;95887.53;;;5.62;65.17
6435;BME280;3250;42.694;23.278;2023-02-14T13:50:37;95925.13;;;5.69;65.47
6435;BME280;3250;42.694;23.278;2023-02-14T13:53:03;95916.91;;;5.64;65.61
6435;BME280;3250;42.694;23.278;2023-02-14T13:55:35;95928.50;;;5.61;65.82
6435;BME280;3250;42.694;23.278;2023-02-14T13:58:18;95927.84;;;5.59;65.94
6435;BME280;3250;42.694;23.278;2023-02-14T14:00:50;95933.25;;;5.66;65.77
6435;BME280;3250;42.694;23.278;2023-02-14T14:06:06;95939.69;;;5.54;65.89
6435;BME280;3250;42.694;23.278;2023-02-14T14:11:00;95934.34;;;5.55;66.04
6435;BME280;3250;42.694;23.278;2023-02-14T14:16:27;95951.69;;;5.64;66.00
6435;BME280;3250;42.694;23.278;2023-02-14T14:21:35;95915.41;;;5.53;65.96
6435;BME280;3250;42.694;23.278;2023-02-14T14:26:39;95940.56;;;5.62;66.15
6435;BME280;3250;42.694;23.278;2023-02-14T14:29:15;95946.63;;;5.63;66.17
6435;BME280;3250;42.694;23.278;2023-02-14T14:31:41;95940.56;;;5.62;65.61
6435;BME280;3250;42.694;23.278;2023-02-14T14:34:17;95934.34;;;5.55;66.30
6435;BME280;3250;42.694;23.278;2023-02-14T14:36:43;95916.00;;;5.47;66.68
6435;BME280;3250;42.694;23.278;2023-02-14T14:39:09;95900.34;;;5.47;66.65
6435;BME280;3250;42.694;23.278;2023-02-14T14:41:35;95896.34;;;5.35;66.55
6435;BME280;3250;42.694;23.278;2023-02-14T14:44:03;95907.03;;;5.24;67.15
6435;BME280;3250;42.694;23.278;2023-02-14T14:46:31;95905.81;;;5.36;67.08
6435;BME280;3250;42.694;23.278;2023-02-14T14:48:59;95908.88;;;5.31;67.25
6435;BME280;3250;42.694;23.278;2023-02-14T14:51:33;95916.28;;;5.36;67.39
6435;BME280;3250;42.694;23.278;2023-02-14T14:54:01;95908.44;;;5.36;66.99
6435;BME280;3250;42.694;23.278;2023-02-14T14:56:32;95883.28;;;5.35;67.00
6435;BME280;3250;42.694;23.278;2023-02-14T15:01:53;95889.97;;;5.38;66.74
6435;BME280;3250;42.694;23.278;2023-02-14T15:04:28;95903.56;;;5.41;66.81
6435;BME280;3250;42.694;23.278;2023-02-14T15:06:56;95919.63;;;5.54;67.17
6435;BME280;3250;42.694;23.278;2023-02-14T15:09:30;95915.06;;;5.56;66.13
6435;BME280;3250;42.694;23.278;2023-02-14T15:11:59;95927.72;;;5.43;66.68
6435;BME280;3250;42.694;23.278;2023-02-14T15:14:48;95921.28;;;5.55;66.49
6435;BME280;3250;42.694;23.278;2023-02-14T15:17:28;95931.50;;;5.49;66.61
6435;BME280;3250;42.694;23.278;2023-02-14T15:20:05;95935.16;;;5.56;65.95
6435;BME280;3250;42.694;23.278;2023-02-14T15:22:40;95881.66;;;5.34;65.68
6435;BME280;3250;42.694;23.278;2023-02-14T15:25:12;95934.03;;;5.58;65.79
6435;BME280;3250;42.694;23.278;2023-02-14T15:27:40;95935.34;;;5.62;65.90
6435;BME280;3250;42.694;23.278;2023-02-14T15:30:30;95924.69;;;5.56;65.52
6435;BME280;3250;42.694;23.278;2023-02-14T15:33:00;95933.00;;;5.51;65.57
6435;BME280;3250;42.694;23.278;2023-02-14T15:35:32;95937.31;;;5.60;65.25
6435;BME280;3250;42.694;23.278;2023-02-14T15:38:01;95937.00;;;5.63;65.05
6435;BME280;3250;42.694;23.278;2023-02-14T15:40:29;95914.78;;;5.59;64.72
6435;BME280;3250;42.694;23.278;2023-02-14T15:43:12;95930.13;;;5.62;64.78
6435;BME280;3250;42.694;23.278;2023-02-14T15:45:38;95931.06;;;5.53;65.26
6435;BME280;3250;42.694;23.278;2023-02-14T15:48:14;95928.75;;;5.50;65.57
6435;BME280;3250;42.694;23.278;2023-02-14T15:50:47;95934.94;;;5.49;65.77
6435;BME280;3250;42.694;23.278;2023-02-14T15:55:49;95933.84;;;5.52;65.53
6435;BME280;3250;42.694;23.278;2023-02-14T15:58:19;95934.28;;;5.47;65.55
6435;BME280;3250;42.694;23.278;2023-02-14T16:00:46;95914.38;;;5.28;65.58
6435;BME280;3250;42.694;23.278;2023-02-14T16:03:24;95924.41;;;5.33;65.66
6435;BME280;3250;42.694;23.278;2023-02-14T16:05:51;95917.69;;;5.30;65.55
6435;BME280;3250;42.694;23.278;2023-02-14T16:13:31;95900.78;;;5.17;65.40
6435;BME280;3250;42.694;23.278;2023-02-14T16:16:03;95931.09;;;5.36;65.26
6435;BME280;3250;42.694;23.278;2023-02-14T16:18:49;95920.44;;;5.29;65.31
6435;BME280;3250;42.694;23.278;2023-02-14T16:23:40;95942.44;;;5.44;65.20